createdAt,value
2019-03-30T00:01:34.001Z,26.43
2019-03-30T00:03:39.315Z,28.70
2019-03-30T00:05:44.588Z,23.03
2019-03-30T00:07:50.364Z,25.53
2019-03-30T00:09:55.731Z,26.10
2019-03-30T00:12:01.059Z,23.93
2019-03-30T00:14:06.458Z,28.90
2019-03-30T00:16:11.815Z,22.83
2019-03-30T00:18:17.148Z,25.93
2019-03-30T00:20:22.827Z,27.30
2019-03-30T00:22:28.272Z,24.20
2019-03-30T00:24:33.892Z,21.50
2019-03-30T00:26:39.990Z,21.27
2019-03-30T00:28:45.570Z,23.77
2019-03-30T00:30:50.859Z,23.60
2019-03-30T00:32:56.306Z,23.53
2019-03-30T00:35:01.636Z,30.97
2019-03-30T00:37:06.948Z,25.40
2019-03-30T00:39:12.237Z,24.50
2019-03-30T00:41:17.817Z,23.03
2019-03-30T00:43:23.138Z,22.97
2019-03-30T00:45:28.412Z,24.87
2019-03-30T00:47:33.687Z,21.47
2019-03-30T00:49:49.140Z,28.90
2019-03-30T00:51:46.635Z,27.90
2019-03-30T00:53:51.972Z,21.87
2019-03-30T00:55:57.266Z,20.57
2019-03-30T00:58:02.682Z,27.17
2019-03-30T01:00:08.500Z,25.30
2019-03-30T01:02:13.744Z,24.03
2019-03-30T01:04:19.030Z,28.77
2019-03-30T01:06:24.477Z,22.70
2019-03-30T01:08:30.067Z,22.47
2019-03-30T01:10:35.694Z,22.33
2019-03-30T01:12:41.004Z,30.23
2019-03-30T01:14:46.306Z,25.20
2019-03-30T01:16:51.600Z,24.83
2019-03-30T01:18:56.873Z,20.43
2019-03-30T01:21:02.467Z,21.80
2019-03-30T01:23:07.773Z,26.83
2019-03-30T01:25:13.513Z,25.00
2019-03-30T01:27:19.127Z,25.43
2019-03-30T01:29:24.437Z,23.73
2019-03-30T01:31:29.707Z,25.70
2019-03-30T01:33:35.016Z,20.93
2019-03-30T01:35:40.500Z,25.73
2019-03-30T01:37:45.827Z,32.37
2019-03-30T01:39:51.162Z,23.47
2019-03-30T01:41:56.410Z,25.23
2019-03-30T01:44:01.749Z,20.87
2019-03-30T01:46:07.002Z,24.50
2019-03-30T01:48:12.244Z,22.00
2019-03-30T01:50:18.237Z,22.17
2019-03-30T01:52:23.591Z,25.53
2019-03-30T01:54:29.260Z,23.50
2019-03-30T01:56:34.616Z,22.30
2019-03-30T01:58:40.180Z,22.73
2019-03-30T02:00:45.918Z,21.77
2019-03-30T02:02:51.182Z,26.40
2019-03-30T02:04:56.617Z,21.83
2019-03-30T02:07:01.969Z,24.00
2019-03-30T02:09:07.957Z,24.20
2019-03-30T02:11:13.234Z,22.67
2019-03-30T02:13:18.577Z,23.20
2019-03-30T02:15:24.197Z,22.77
2019-03-30T02:17:29.527Z,23.40
2019-03-30T02:19:35.144Z,21.87
2019-03-30T02:21:40.723Z,22.80
2019-03-30T02:23:46.387Z,23.87
2019-03-30T02:25:51.660Z,24.10
2019-03-30T02:27:57.070Z,24.40
2019-03-30T02:30:02.426Z,27.87
2019-03-30T02:32:07.733Z,22.93
2019-03-30T02:34:13.057Z,24.00
2019-03-30T02:36:18.337Z,27.73
2019-03-30T02:38:23.583Z,22.07
2019-03-30T02:40:28.900Z,22.43
2019-03-30T02:42:34.174Z,27.03
2019-03-30T02:44:39.466Z,22.03
2019-03-30T02:46:44.779Z,26.27
2019-03-30T02:48:50.438Z,25.33
2019-03-30T02:50:55.744Z,22.97
2019-03-30T02:53:01.052Z,23.27
2019-03-30T02:55:06.327Z,24.37
2019-03-30T02:57:11.629Z,22.90
2019-03-30T02:59:16.920Z,24.30
2019-03-30T03:01:22.190Z,33.10
2019-03-30T03:03:27.507Z,24.20
2019-03-30T03:05:32.755Z,19.90
2019-03-30T03:07:38.048Z,23.37
2019-03-30T03:09:43.346Z,25.40
2019-03-30T03:11:48.615Z,26.43
2019-03-30T03:13:53.926Z,22.87
2019-03-30T03:15:59.317Z,22.40
2019-03-30T03:18:04.599Z,28.97
2019-03-30T03:20:10.107Z,19.83
2019-03-30T03:22:15.697Z,22.10
2019-03-30T03:24:21.472Z,27.30
2019-03-30T03:26:27.118Z,22.63
2019-03-30T03:28:32.788Z,20.97
2019-03-30T03:30:38.074Z,27.50
2019-03-30T03:32:43.804Z,26.30
2019-03-30T03:34:49.088Z,24.83
2019-03-30T03:36:54.373Z,23.93
2019-03-30T03:38:59.887Z,25.33
2019-03-30T03:41:05.189Z,28.33
2019-03-30T03:43:10.903Z,23.20
2019-03-30T03:45:16.269Z,22.10
2019-03-30T03:47:21.902Z,24.70
2019-03-30T03:49:27.190Z,26.93
2019-03-30T03:51:33.074Z,28.20
2019-03-30T03:53:38.779Z,20.10
2019-03-30T03:55:45.146Z,23.53
2019-03-30T03:57:50.671Z,25.20
2019-03-30T03:59:58.364Z,21.03
2019-03-30T04:02:04.744Z,20.90
2019-03-30T04:04:11.626Z,23.50
2019-03-30T04:06:19.885Z,27.03
2019-03-30T04:08:27.791Z,29.40
2019-03-30T04:10:36.380Z,23.60
2019-03-30T04:12:43.844Z,28.83
2019-03-30T04:14:52.757Z,24.27
2019-03-30T04:16:58.022Z,33.00
2019-03-30T04:19:03.292Z,21.10
2019-03-30T04:21:08.615Z,27.93
2019-03-30T04:23:14.335Z,21.63
2019-03-30T04:25:19.642Z,22.33
2019-03-30T04:27:24.987Z,39.63
2019-03-30T04:29:30.274Z,22.87
2019-03-30T04:31:35.701Z,21.60
2019-03-30T04:33:40.991Z,28.73
2019-03-30T04:35:46.316Z,23.10
2019-03-30T04:37:52.078Z,19.10
2019-03-30T04:39:57.727Z,18.87
2019-03-30T04:42:03.330Z,23.90
2019-03-30T04:44:08.668Z,24.63
2019-03-30T04:46:13.946Z,26.80
2019-03-30T04:48:19.577Z,21.23
2019-03-30T04:50:24.840Z,32.50
2019-03-30T04:52:30.136Z,22.60
2019-03-30T04:54:35.477Z,24.83
2019-03-30T04:56:40.820Z,25.37
2019-03-30T04:58:46.423Z,21.07
2019-03-30T05:00:51.727Z,21.03
2019-03-30T05:02:57.305Z,25.93
2019-03-30T05:05:02.829Z,23.70
2019-03-30T05:07:08.140Z,20.83
2019-03-30T05:09:13.696Z,19.80
2019-03-30T05:11:19.012Z,24.30
2019-03-30T05:13:24.634Z,30.60
2019-03-30T05:15:29.915Z,20.13
2019-03-30T05:17:47.030Z,19.47
2019-03-30T05:19:42.526Z,17.57
2019-03-30T05:21:48.285Z,20.10
2019-03-30T05:23:53.642Z,21.10
2019-03-30T05:25:59.246Z,24.00
2019-03-30T05:28:04.564Z,23.43
2019-03-30T05:30:11.515Z,17.63
2019-03-30T05:32:17.132Z,20.50
2019-03-30T05:34:22.489Z,18.77
2019-03-30T05:36:28.139Z,23.60
2019-03-30T05:38:33.478Z,22.63
2019-03-30T05:40:38.831Z,18.40
2019-03-30T05:42:44.091Z,19.57
2019-03-30T05:44:49.418Z,23.40
2019-03-30T05:46:54.828Z,17.60
2019-03-30T05:49:00.107Z,17.10
2019-03-30T05:51:05.485Z,18.37
2019-03-30T05:53:10.814Z,22.57
2019-03-30T05:55:16.156Z,18.50
2019-03-30T05:57:21.593Z,13.90
2019-03-30T05:59:27.248Z,22.70
2019-03-30T06:01:32.644Z,13.60
2019-03-30T06:03:37.894Z,17.70
2019-03-30T06:05:43.366Z,18.10
2019-03-30T06:07:48.814Z,17.47
2019-03-30T06:09:54.163Z,15.30
2019-03-30T06:11:59.531Z,16.53
2019-03-30T06:14:04.865Z,19.90
2019-03-30T06:16:10.124Z,14.00
2019-03-30T06:18:15.583Z,17.00
2019-03-30T06:20:20.872Z,16.80
2019-03-30T06:22:39.535Z,20.53
2019-03-30T06:24:33.478Z,15.07
2019-03-30T06:26:38.799Z,17.30
2019-03-30T06:28:44.667Z,14.87
2019-03-30T06:30:50.017Z,17.73
2019-03-30T06:32:55.607Z,13.00
2019-03-30T06:35:02.035Z,13.50
2019-03-30T06:37:08.124Z,20.00
2019-03-30T06:39:16.174Z,12.90
2019-03-30T06:41:22.883Z,14.50
2019-03-30T06:43:28.132Z,16.00
2019-03-30T06:45:34.236Z,14.73
2019-03-30T06:47:39.563Z,12.60
2019-03-30T06:49:44.921Z,12.83
2019-03-30T06:51:50.284Z,11.37
2019-03-30T06:53:55.980Z,12.50
2019-03-30T06:56:01.302Z,13.60
2019-03-30T06:58:07.143Z,10.93
2019-03-30T07:00:12.773Z,9.57
2019-03-30T07:02:18.210Z,13.63
2019-03-30T07:04:23.579Z,13.05
2019-03-30T07:06:30.398Z,15.23
2019-03-30T07:08:36.632Z,11.83
2019-03-30T07:10:43.476Z,11.43
2019-03-30T07:12:50.306Z,12.50
2019-03-30T07:14:58.674Z,13.10
2019-03-30T07:17:05.204Z,16.00
2019-03-30T07:19:12.038Z,9.53
2019-03-30T07:21:17.408Z,9.50
2019-03-30T07:23:23.237Z,13.08
2019-03-30T07:25:28.606Z,9.70
2019-03-30T07:27:35.290Z,9.20
2019-03-30T07:29:40.591Z,11.85
2019-03-30T07:31:46.418Z,10.05
2019-03-30T07:33:51.647Z,20.08
2019-03-30T07:35:56.991Z,12.10
2019-03-30T07:38:03.120Z,9.63
2019-03-30T07:40:08.901Z,14.50
2019-03-30T07:42:14.599Z,13.03
2019-03-30T07:44:20.158Z,16.02
2019-03-30T07:46:25.535Z,8.40
2019-03-30T07:48:34.467Z,9.13
2019-03-30T07:50:40.073Z,8.90
2019-03-30T07:52:45.618Z,12.98
2019-03-30T07:54:50.976Z,9.70
2019-03-30T07:57:05.077Z,10.35
2019-03-30T07:59:03.622Z,8.08
2019-03-30T08:01:08.971Z,11.28
2019-03-30T08:03:14.305Z,9.08
2019-03-30T08:05:19.694Z,10.48
2019-03-30T08:07:25.068Z,11.08
2019-03-30T08:09:30.543Z,11.50
2019-03-30T08:11:36.029Z,14.80
2019-03-30T08:13:41.369Z,13.15
2019-03-30T08:15:46.696Z,12.78
2019-03-30T08:17:52.000Z,11.88
2019-03-30T08:20:00.115Z,10.48
2019-03-30T08:22:06.014Z,11.63
2019-03-30T08:24:12.359Z,12.63
2019-03-30T08:26:18.113Z,14.13
2019-03-30T08:28:23.598Z,13.60
2019-03-30T08:30:28.963Z,12.20
2019-03-30T08:32:34.865Z,16.93
2019-03-30T08:34:40.738Z,16.27
2019-03-30T08:36:46.054Z,11.43
2019-03-30T08:38:53.131Z,13.17
2019-03-30T08:40:58.745Z,15.15
2019-03-30T08:43:04.041Z,19.27
2019-03-30T08:45:10.248Z,12.70
2019-03-30T08:47:15.686Z,14.45
2019-03-30T08:49:21.059Z,11.50
2019-03-30T08:51:26.458Z,18.10
2019-03-30T08:53:31.763Z,12.43
2019-03-30T08:55:37.061Z,16.27
2019-03-30T08:57:42.849Z,15.75
2019-03-30T08:59:48.136Z,16.25
2019-03-30T09:01:53.416Z,15.18
2019-03-30T09:04:00.580Z,16.87
2019-03-30T09:06:06.423Z,13.00
2019-03-30T09:08:11.838Z,15.05
2019-03-30T09:10:17.637Z,15.38
2019-03-30T09:12:22.978Z,16.87
2019-03-30T09:14:28.317Z,13.25
2019-03-30T09:16:33.641Z,13.22
2019-03-30T09:18:38.934Z,12.93
2019-03-30T09:20:44.606Z,13.48
2019-03-30T09:22:50.399Z,17.27
2019-03-30T09:24:56.776Z,16.02
2019-03-30T09:27:02.430Z,13.13
2019-03-30T09:29:08.394Z,15.13
2019-03-30T09:31:14.136Z,15.53
2019-03-30T09:33:20.812Z,15.32
2019-03-30T09:35:26.361Z,15.48
2019-03-30T09:37:31.915Z,13.83
2019-03-30T09:39:37.179Z,15.13
2019-03-30T09:41:42.870Z,15.28
2019-03-30T09:43:48.315Z,18.32
2019-03-30T09:45:53.935Z,12.53
2019-03-30T09:47:59.261Z,14.25
2019-03-30T09:50:04.698Z,13.08
2019-03-30T09:52:10.034Z,17.60
2019-03-30T09:54:23.483Z,16.05
2019-03-30T09:56:24.523Z,17.90
2019-03-30T09:58:30.933Z,16.85
2019-03-30T10:00:36.279Z,19.35
2019-03-30T10:02:41.603Z,14.13
2019-03-30T10:04:46.947Z,12.78
2019-03-30T10:06:52.355Z,15.88
2019-03-30T10:08:57.741Z,11.88
2019-03-30T10:11:12.438Z,18.10
2019-03-30T10:13:17.716Z,20.25
2019-03-30T10:15:23.552Z,16.67
2019-03-30T10:17:28.840Z,14.00
2019-03-30T10:19:34.504Z,11.10
2019-03-30T10:21:40.050Z,15.08
2019-03-30T10:23:47.954Z,12.25
2019-03-30T10:25:53.673Z,10.88
2019-03-30T10:27:59.084Z,13.00
2019-03-30T10:30:04.526Z,9.80
2019-03-30T10:32:09.957Z,13.85
2019-03-30T10:34:15.828Z,14.65
2019-03-30T10:36:21.432Z,9.70
2019-03-30T10:38:26.774Z,15.35
2019-03-30T10:40:32.088Z,10.35
2019-03-30T10:42:37.437Z,12.75
2019-03-30T10:44:42.744Z,13.30
2019-03-30T10:46:48.019Z,15.63
2019-03-30T10:48:53.393Z,10.95
2019-03-30T10:50:58.665Z,8.88
2019-03-30T10:53:03.957Z,9.35
2019-03-30T10:55:10.642Z,10.80
2019-03-30T10:57:16.261Z,8.80
2019-03-30T10:59:21.594Z,9.80
2019-03-30T11:01:27.127Z,11.38
2019-03-30T11:03:32.618Z,10.23
2019-03-30T11:05:38.542Z,11.93
2019-03-30T11:07:43.914Z,9.80
2019-03-30T11:09:50.409Z,11.10
2019-03-30T11:11:56.112Z,8.60
2019-03-30T11:14:01.446Z,13.50
2019-03-30T11:16:06.738Z,9.23
2019-03-30T11:18:13.540Z,10.03
2019-03-30T11:20:21.590Z,9.08
2019-03-30T11:22:26.905Z,8.65
2019-03-30T11:24:34.156Z,13.88
2019-03-30T11:26:39.517Z,9.33
2019-03-30T11:28:45.328Z,7.40
2019-03-30T11:30:50.911Z,11.30
2019-03-30T11:32:56.206Z,8.05
2019-03-30T11:35:01.545Z,10.85
2019-03-30T11:37:07.015Z,20.95
2019-03-30T11:39:12.935Z,13.62
2019-03-30T11:41:18.213Z,12.15
2019-03-30T11:43:23.483Z,14.50
2019-03-30T11:45:28.962Z,9.38
2019-03-30T11:47:34.276Z,10.20
2019-03-30T11:49:39.650Z,11.30
2019-03-30T11:51:44.977Z,14.23
2019-03-30T11:53:50.776Z,25.30
2019-03-30T11:55:56.265Z,16.25
2019-03-30T11:58:01.581Z,17.42
2019-03-30T12:00:07.371Z,14.23
2019-03-30T12:02:26.918Z,10.80
2019-03-30T12:04:20.089Z,11.00
2019-03-30T12:06:25.416Z,8.93
2019-03-30T12:08:31.098Z,18.63
2019-03-30T12:10:36.901Z,15.73
2019-03-30T12:12:42.272Z,16.30
2019-03-30T12:14:47.558Z,12.60
2019-03-30T12:16:52.823Z,11.40
2019-03-30T12:18:58.316Z,14.80
2019-03-30T12:21:04.040Z,16.37
2019-03-30T12:23:09.360Z,15.75
2019-03-30T12:25:14.700Z,7.10
2019-03-30T12:27:20.588Z,14.47
2019-03-30T12:29:25.882Z,10.08
2019-03-30T12:31:31.258Z,10.10
2019-03-30T12:33:36.562Z,10.43
2019-03-30T12:35:41.900Z,10.72
2019-03-30T12:37:47.209Z,9.55
2019-03-30T12:39:52.506Z,8.10
2019-03-30T12:41:58.276Z,9.63
2019-03-30T12:44:03.538Z,8.40
2019-03-30T12:46:08.895Z,8.10
2019-03-30T12:48:14.401Z,8.78
2019-03-30T12:50:19.752Z,11.45
2019-03-30T12:52:26.489Z,12.55
2019-03-30T12:54:32.158Z,8.95
2019-03-30T12:56:37.783Z,10.10
2019-03-30T12:58:43.115Z,10.00
2019-03-30T13:00:48.391Z,10.65
2019-03-30T13:02:53.738Z,12.55
2019-03-30T13:04:59.357Z,10.20
2019-03-30T13:07:04.674Z,10.60
2019-03-30T13:09:10.010Z,10.90
2019-03-30T13:11:15.267Z,10.07
2019-03-30T13:13:20.578Z,8.80
2019-03-30T13:15:25.949Z,10.23
2019-03-30T13:17:31.238Z,10.23
2019-03-30T13:19:36.592Z,9.10
2019-03-30T13:21:52.454Z,15.33
2019-03-30T13:23:48.972Z,10.80
2019-03-30T13:26:03.543Z,16.63
2019-03-30T13:28:01.427Z,12.80
2019-03-30T13:30:07.892Z,15.03
2019-03-30T13:32:13.242Z,12.60
2019-03-30T13:34:18.524Z,17.47
2019-03-30T13:36:38.930Z,11.63
2019-03-30T13:38:44.248Z,10.50
2019-03-30T13:40:49.532Z,16.13
2019-03-30T13:42:54.996Z,10.73
2019-03-30T13:45:03.178Z,14.70
2019-03-30T13:47:07.219Z,12.23
2019-03-30T13:49:12.541Z,13.27
2019-03-30T13:51:18.147Z,12.00
2019-03-30T13:53:23.480Z,12.47
2019-03-30T13:55:29.111Z,17.13
2019-03-30T13:57:34.466Z,10.77
2019-03-30T13:59:39.805Z,11.43
2019-03-30T14:01:45.256Z,10.20
2019-03-30T14:03:50.534Z,10.93
2019-03-30T14:05:56.039Z,10.97
2019-03-30T14:08:01.333Z,12.47
2019-03-30T14:10:07.387Z,11.90
2019-03-30T14:12:12.691Z,10.10
2019-03-30T14:14:17.947Z,9.80
2019-03-30T14:16:23.290Z,12.00
2019-03-30T14:18:28.574Z,13.00
2019-03-30T14:20:33.891Z,13.50
2019-03-30T14:22:39.353Z,12.57
2019-03-30T14:24:44.688Z,11.50
2019-03-30T14:26:49.967Z,13.17
2019-03-30T14:28:55.593Z,16.73
2019-03-30T14:31:01.041Z,12.33
2019-03-30T14:33:06.368Z,13.53
2019-03-30T14:35:12.077Z,14.97
2019-03-30T14:37:17.686Z,15.00
2019-03-30T14:39:23.033Z,16.50
2019-03-30T14:41:28.523Z,12.80
2019-03-30T14:43:33.825Z,14.97
2019-03-30T14:45:39.151Z,14.70
2019-03-30T14:47:44.465Z,14.03
2019-03-30T14:49:49.790Z,12.13
2019-03-30T14:51:55.091Z,16.00
2019-03-30T14:54:00.436Z,14.17
2019-03-30T14:56:05.935Z,14.40
2019-03-30T14:58:11.211Z,18.73
2019-03-30T15:00:17.693Z,16.53
2019-03-30T15:02:23.115Z,12.03
2019-03-30T15:04:28.698Z,16.50
2019-03-30T15:06:34.026Z,11.20
2019-03-30T15:08:39.355Z,13.53
2019-03-30T15:10:44.651Z,12.70
2019-03-30T15:12:49.994Z,12.97
2019-03-30T15:14:55.276Z,13.30
2019-03-30T15:17:00.607Z,16.20
2019-03-30T15:19:05.902Z,15.00
2019-03-30T15:21:11.193Z,14.93
2019-03-30T15:23:16.539Z,15.70
2019-03-30T15:25:22.159Z,10.77
2019-03-30T15:27:27.462Z,11.53
2019-03-30T15:29:32.766Z,20.97
2019-03-30T15:31:38.041Z,13.97
2019-03-30T15:33:43.597Z,14.10
2019-03-30T15:35:48.887Z,16.63
2019-03-30T15:37:54.157Z,11.63
2019-03-30T15:39:59.900Z,11.87
2019-03-30T15:42:05.302Z,13.53
2019-03-30T15:44:10.678Z,14.87
2019-03-30T15:46:16.089Z,13.83
2019-03-30T15:48:21.355Z,15.00
2019-03-30T15:50:26.710Z,16.00
2019-03-30T15:52:32.087Z,11.53
2019-03-30T15:54:37.493Z,14.43
2019-03-30T15:56:42.766Z,15.20
2019-03-30T15:58:48.450Z,14.90
2019-03-30T16:00:53.791Z,12.97
2019-03-30T16:02:59.112Z,15.57
2019-03-30T16:05:04.524Z,13.33
2019-03-30T16:07:09.954Z,17.50
2019-03-30T16:09:15.209Z,15.27
2019-03-30T16:11:21.575Z,15.50
2019-03-30T16:13:27.317Z,16.43
2019-03-30T16:15:32.590Z,16.53
2019-03-30T16:17:37.942Z,28.43
2019-03-30T16:19:43.256Z,19.50
2019-03-30T16:21:49.794Z,15.10
2019-03-30T16:23:55.207Z,18.70
2019-03-30T16:26:00.602Z,19.73
2019-03-30T16:28:05.935Z,16.40
2019-03-30T16:30:11.877Z,16.27
2019-03-30T16:32:17.137Z,16.03
2019-03-30T16:34:22.788Z,13.87
2019-03-30T16:36:28.097Z,12.70
2019-03-30T16:38:33.386Z,15.60
2019-03-30T16:40:38.729Z,17.10
2019-03-30T16:42:44.047Z,16.07
2019-03-30T16:44:49.338Z,17.33
2019-03-30T16:46:57.325Z,15.47
2019-03-30T16:49:01.718Z,16.37
2019-03-30T16:51:07.021Z,15.10
2019-03-30T16:53:12.367Z,17.40
2019-03-30T16:55:18.029Z,16.97
2019-03-30T16:57:23.316Z,16.10
2019-03-30T16:59:28.605Z,16.40
2019-03-30T17:01:33.956Z,18.70
2019-03-30T17:03:39.219Z,15.90
2019-03-30T17:05:44.543Z,17.00
2019-03-30T17:07:49.912Z,15.07
2019-03-30T17:09:55.166Z,21.30
2019-03-30T17:12:01.936Z,23.03
2019-03-30T17:14:07.201Z,17.07
2019-03-30T17:16:12.522Z,14.37
2019-03-30T17:18:17.817Z,16.27
2019-03-30T17:20:23.176Z,19.27
2019-03-30T17:22:28.511Z,14.93
2019-03-30T17:24:33.794Z,15.67
2019-03-30T17:26:39.093Z,18.87
2019-03-30T17:28:44.698Z,15.37
2019-03-30T17:30:50.310Z,19.30
2019-03-30T17:32:55.587Z,17.23
2019-03-30T17:35:00.886Z,16.63
2019-03-30T17:37:06.511Z,14.57
2019-03-30T17:39:12.933Z,25.00
2019-03-30T17:41:18.254Z,18.60
2019-03-30T17:43:23.567Z,18.80
2019-03-30T17:45:28.856Z,21.43
2019-03-30T17:47:34.130Z,18.80
2019-03-30T17:49:39.435Z,17.10
2019-03-30T17:51:44.772Z,19.17
2019-03-30T17:53:50.055Z,16.00
2019-03-30T17:55:55.359Z,18.73
2019-03-30T17:58:12.185Z,19.60
2019-03-30T18:00:09.707Z,25.70
2019-03-30T18:02:15.010Z,18.53
2019-03-30T18:04:20.335Z,20.47
2019-03-30T18:06:25.634Z,19.87
2019-03-30T18:08:30.960Z,16.10
2019-03-30T18:10:36.940Z,19.87
2019-03-30T18:12:42.351Z,24.00
2019-03-30T18:14:47.712Z,19.77
2019-03-30T18:16:53.076Z,23.57
2019-03-30T18:18:58.391Z,21.73
2019-03-30T18:21:03.678Z,21.17
2019-03-30T18:23:08.958Z,19.80
2019-03-30T18:25:14.584Z,23.37
2019-03-30T18:27:20.179Z,23.80
2019-03-30T18:29:25.813Z,22.40
2019-03-30T18:31:31.144Z,21.90
2019-03-30T18:33:36.836Z,27.50
2019-03-30T18:35:42.262Z,23.37
2019-03-30T18:37:47.652Z,22.90
2019-03-30T18:39:53.290Z,30.63
2019-03-30T18:41:58.572Z,31.47
2019-03-30T18:44:04.261Z,26.43
2019-03-30T18:46:09.559Z,24.60
2019-03-30T18:48:18.467Z,34.93
2019-03-30T18:50:24.190Z,27.70
2019-03-30T18:52:29.850Z,26.00
2019-03-30T18:54:35.866Z,28.67
2019-03-30T18:56:41.159Z,29.80
2019-03-30T18:58:46.490Z,32.57
2019-03-30T19:00:52.280Z,32.10
2019-03-30T19:02:57.713Z,29.93
2019-03-30T19:05:03.733Z,28.23
2019-03-30T19:07:09.024Z,25.90
2019-03-30T19:09:14.763Z,50.63
2019-03-30T19:11:20.114Z,29.90
2019-03-30T19:13:25.859Z,41.50
2019-03-30T19:15:32.451Z,39.60
2019-03-30T19:17:37.723Z,39.80
2019-03-30T19:19:43.018Z,31.43
2019-03-30T19:21:48.427Z,34.10
2019-03-30T19:23:53.871Z,32.13
2019-03-30T19:25:59.172Z,35.83
2019-03-30T19:28:04.492Z,37.53
2019-03-30T19:30:11.104Z,27.53
2019-03-30T19:32:16.455Z,40.23
2019-03-30T19:34:21.892Z,37.27
2019-03-30T19:36:27.214Z,34.50
2019-03-30T19:38:32.536Z,39.73
2019-03-30T19:40:38.151Z,32.10
2019-03-30T19:42:44.076Z,31.90
2019-03-30T19:44:49.404Z,45.37
2019-03-30T19:46:54.696Z,42.70
2019-03-30T19:48:59.992Z,36.60
2019-03-30T19:51:05.341Z,38.77
2019-03-30T19:53:10.787Z,51.43
2019-03-30T19:55:16.060Z,47.73
2019-03-30T19:57:21.385Z,40.93
2019-03-30T19:59:26.780Z,38.13
2019-03-30T20:01:32.138Z,39.30
2019-03-30T20:03:37.466Z,38.13
2019-03-30T20:05:44.634Z,46.03
2019-03-30T20:07:50.166Z,32.07
2019-03-30T20:09:55.785Z,38.90
2019-03-30T20:12:01.496Z,33.00
2019-03-30T20:14:06.809Z,31.10
2019-03-30T20:16:12.112Z,34.03
2019-03-30T20:18:17.514Z,36.63
2019-03-30T20:20:23.308Z,33.93
2019-03-30T20:22:28.632Z,35.23
2019-03-30T20:24:34.435Z,34.87
2019-03-30T20:26:39.911Z,33.40
2019-03-30T20:28:45.588Z,35.40
2019-03-30T20:30:50.903Z,36.03
2019-03-30T20:32:56.220Z,36.03
2019-03-30T20:35:01.500Z,37.60
2019-03-30T20:37:06.868Z,44.87
2019-03-30T20:39:12.330Z,40.53
2019-03-30T20:41:17.696Z,38.13
2019-03-30T20:43:23.303Z,37.70
2019-03-30T20:45:28.969Z,33.60
2019-03-30T20:47:34.269Z,34.93
2019-03-30T20:49:40.203Z,35.83
2019-03-30T20:51:46.431Z,41.87
2019-03-30T20:53:52.085Z,37.53
2019-03-30T20:55:57.402Z,44.63
2019-03-30T20:58:05.465Z,34.17
2019-03-30T21:00:11.422Z,46.20
2019-03-30T21:02:16.699Z,46.93
2019-03-30T21:04:22.301Z,42.47
2019-03-30T21:06:27.638Z,38.43
2019-03-30T21:08:33.196Z,40.37
2019-03-30T21:10:38.512Z,39.40
2019-03-30T21:12:43.886Z,43.70
2019-03-30T21:14:49.529Z,42.00
2019-03-30T21:16:54.796Z,48.30
2019-03-30T21:19:00.164Z,42.47
2019-03-30T21:21:08.988Z,39.97
2019-03-30T21:23:12.838Z,46.27
2019-03-30T21:25:18.211Z,43.87
2019-03-30T21:27:23.859Z,40.20
2019-03-30T21:29:29.643Z,38.90
2019-03-30T21:31:35.002Z,37.97
2019-03-30T21:33:40.342Z,43.17
2019-03-30T21:35:45.710Z,41.90
2019-03-30T21:37:51.226Z,44.10
2019-03-30T21:39:56.871Z,39.07
2019-03-30T21:42:02.188Z,48.20
2019-03-30T21:44:21.092Z,38.77
2019-03-30T21:46:14.725Z,40.07
2019-03-30T21:48:20.070Z,40.97
2019-03-30T21:50:25.374Z,43.33
2019-03-30T21:52:30.688Z,43.17
2019-03-30T21:54:35.985Z,47.40
2019-03-30T21:56:41.275Z,43.47
2019-03-30T21:58:46.933Z,48.20
2019-03-30T22:00:52.282Z,48.53
2019-03-30T22:02:57.883Z,42.83
2019-03-30T22:05:03.216Z,47.13
2019-03-30T22:07:08.698Z,46.40
2019-03-30T22:09:13.999Z,50.77
2019-03-30T22:11:20.284Z,53.17
2019-03-30T22:13:26.186Z,47.93
2019-03-30T22:15:31.689Z,49.00
2019-03-30T22:17:37.028Z,48.40
2019-03-30T22:19:42.735Z,48.97
2019-03-30T22:21:48.719Z,52.37
2019-03-30T22:23:54.418Z,49.93
2019-03-30T22:26:00.839Z,52.30
2019-03-30T22:28:06.179Z,58.83
2019-03-30T22:30:24.148Z,52.90
2019-03-30T22:32:19.511Z,52.10
2019-03-30T22:34:24.846Z,50.13
2019-03-30T22:36:30.480Z,48.73
2019-03-30T22:38:36.867Z,52.20
2019-03-30T22:40:42.655Z,55.20
2019-03-30T22:42:47.995Z,56.40
2019-03-30T22:44:55.647Z,56.83
2019-03-30T22:47:01.293Z,60.27
2019-03-30T22:49:08.600Z,54.70
2019-03-30T22:51:14.307Z,58.30
2019-03-30T22:53:19.664Z,58.60
2019-03-30T22:55:25.107Z,68.13
2019-03-30T22:57:30.420Z,66.67
2019-03-30T22:59:35.816Z,59.33
2019-03-30T23:01:41.509Z,58.90
2019-03-30T23:03:57.112Z,64.33
2019-03-30T23:06:04.406Z,56.83
2019-03-30T23:08:11.924Z,53.83
2019-03-30T23:10:39.097Z,62.90
2019-03-30T23:12:40.866Z,56.90
2019-03-30T23:14:47.784Z,58.03
2019-03-30T23:16:53.126Z,61.67
2019-03-30T23:18:58.598Z,63.73
2019-03-30T23:21:04.261Z,60.23
2019-03-30T23:23:09.900Z,59.53
2019-03-30T23:25:15.352Z,60.53
2019-03-30T23:27:20.711Z,61.47
2019-03-30T23:29:26.179Z,66.53
2019-03-30T23:31:31.915Z,60.63
2019-03-30T23:33:37.568Z,65.27
2019-03-30T23:35:42.907Z,61.70
2019-03-30T23:37:48.223Z,64.97
2019-03-30T23:39:53.598Z,64.90
2019-03-30T23:41:58.921Z,62.23
2019-03-30T23:44:04.710Z,59.03
2019-03-30T23:46:10.046Z,65.27
2019-03-30T23:48:15.916Z,66.03
2019-03-30T23:50:21.257Z,57.87
2019-03-30T23:52:26.580Z,63.63
2019-03-30T23:54:31.851Z,69.83
2019-03-30T23:56:37.171Z,61.20
2019-03-30T23:58:42.788Z,71.10
